createdAt,value
2018-06-03T00:01:09.962Z,2.90
2018-06-03T00:03:41.553Z,2.77
2018-06-03T00:06:12.818Z,3.10
2018-06-03T00:08:43.404Z,2.93
2018-06-03T00:11:14.889Z,3.17
2018-06-03T00:13:45.163Z,2.73
2018-06-03T00:16:16.065Z,2.93
2018-06-03T00:18:46.859Z,2.97
2018-06-03T00:21:28.433Z,3.10
2018-06-03T00:23:58.452Z,2.83
2018-06-03T00:26:44.667Z,2.87
2018-06-03T00:29:15.402Z,3.13
2018-06-03T00:31:47.122Z,3.27
2018-06-03T00:34:17.355Z,3.40
2018-06-03T00:36:49.987Z,3.00
2018-06-03T00:39:20.321Z,2.90
2018-06-03T00:41:50.367Z,3.63
2018-06-03T00:44:20.460Z,4.00
2018-06-03T00:46:50.831Z,3.20
2018-06-03T00:49:20.766Z,3.27
2018-06-03T00:51:50.897Z,3.27
2018-06-03T00:54:21.317Z,3.50
2018-06-03T00:57:01.924Z,3.63
2018-06-03T00:59:32.427Z,3.30
2018-06-03T01:02:02.473Z,3.77
2018-06-03T01:04:32.557Z,3.67
2018-06-03T01:08:05.216Z,3.50
2018-06-03T01:10:35.520Z,3.77
2018-06-03T01:13:05.895Z,3.87
2018-06-03T01:15:37.071Z,4.20
2018-06-03T01:18:07.093Z,4.03
2018-06-03T01:20:37.090Z,4.00
2018-06-03T01:23:08.303Z,3.67
2018-06-03T01:25:38.618Z,4.03
2018-06-03T01:28:09.467Z,4.03
2018-06-03T01:30:40.320Z,3.77
2018-06-03T01:33:10.480Z,3.93
2018-06-03T01:35:40.523Z,3.90
2018-06-03T01:38:11.425Z,3.67
2018-06-03T01:40:48.686Z,4.20
2018-06-03T01:43:27.863Z,4.83
2018-06-03T01:45:58.197Z,3.63
2018-06-03T01:48:28.281Z,4.20
2018-06-03T01:50:58.304Z,4.17
2018-06-03T01:53:28.447Z,3.90
2018-06-03T01:55:58.476Z,3.73
2018-06-03T01:58:29.384Z,3.97
2018-06-03T02:00:59.730Z,4.40
2018-06-03T02:03:29.891Z,4.40
2018-06-03T02:06:00.059Z,3.60
2018-06-03T02:08:31.038Z,4.30
2018-06-03T02:11:01.188Z,4.33
2018-06-03T02:13:31.389Z,4.70
2018-06-03T02:18:50.016Z,4.60
2018-06-03T02:21:20.203Z,4.33
2018-06-03T02:23:50.444Z,4.30
2018-06-03T02:26:22.733Z,5.00
2018-06-03T02:28:52.939Z,5.30
2018-06-03T02:31:23.113Z,4.30
2018-06-03T02:33:53.495Z,4.87
2018-06-03T02:36:23.564Z,4.03
2018-06-03T02:38:53.717Z,4.00
2018-06-03T02:41:24.034Z,4.40
2018-06-03T02:43:54.074Z,4.87
2018-06-03T02:46:24.232Z,4.30
2018-06-03T02:48:55.349Z,4.03
2018-06-03T02:51:25.444Z,4.23
2018-06-03T02:53:55.511Z,4.73
2018-06-03T02:56:26.599Z,4.67
2018-06-03T02:58:56.480Z,5.00
2018-06-03T03:01:26.543Z,4.37
2018-06-03T03:03:56.593Z,4.33
2018-06-03T03:06:27.558Z,4.60
2018-06-03T03:09:08.670Z,4.60
2018-06-03T03:12:01.488Z,4.37
2018-06-03T03:14:31.616Z,4.63
2018-06-03T03:17:02.037Z,4.87
2018-06-03T03:19:32.242Z,4.20
2018-06-03T03:22:42.411Z,4.10
2018-06-03T03:25:20.474Z,4.70
2018-06-03T03:27:51.007Z,4.20
2018-06-03T03:30:21.099Z,5.03
2018-06-03T03:32:51.138Z,4.33
2018-06-03T03:35:21.134Z,4.63
2018-06-03T03:37:51.225Z,4.90
2018-06-03T03:40:21.623Z,5.20
2018-06-03T03:42:51.615Z,5.20
2018-06-03T03:45:21.688Z,4.47
2018-06-03T03:47:59.733Z,4.40
2018-06-03T03:50:37.667Z,4.73
2018-06-03T03:53:20.921Z,4.60
2018-06-03T03:55:59.935Z,5.43
2018-06-03T03:58:31.098Z,4.73
2018-06-03T04:01:01.502Z,4.60
2018-06-03T04:03:32.239Z,5.00
2018-06-03T04:06:03.096Z,5.07
2018-06-03T04:08:33.524Z,5.47
2018-06-03T04:11:03.675Z,5.27
2018-06-03T04:13:34.031Z,5.80
2018-06-03T04:16:05.250Z,5.20
2018-06-03T04:18:35.288Z,5.90
2018-06-03T04:21:05.599Z,5.23
2018-06-03T04:23:36.000Z,4.97
2018-06-03T04:26:06.977Z,5.53
2018-06-03T04:28:37.066Z,5.40
2018-06-03T04:31:07.201Z,5.27
2018-06-03T04:33:38.555Z,6.27
2018-06-03T04:36:08.625Z,5.97
2018-06-03T04:38:38.861Z,5.20
2018-06-03T04:41:09.229Z,5.70
2018-06-03T04:43:39.254Z,5.30
2018-06-03T04:46:09.295Z,5.97
2018-06-03T04:48:39.842Z,5.73
2018-06-03T04:51:09.928Z,5.57
2018-06-03T04:53:40.914Z,5.57
2018-06-03T04:56:11.315Z,5.00
2018-06-03T04:58:41.485Z,5.17
2018-06-03T05:01:11.554Z,5.33
2018-06-03T05:03:42.776Z,5.70
2018-06-03T05:06:13.749Z,5.63
2018-06-03T05:08:43.845Z,5.67
2018-06-03T05:11:15.160Z,5.53
2018-06-03T05:13:45.454Z,4.93
2018-06-03T05:16:15.605Z,4.60
2018-06-03T05:18:46.015Z,5.60
2018-06-03T05:21:16.366Z,5.40
2018-06-03T05:23:46.537Z,5.30
2018-06-03T05:26:17.030Z,5.20
2018-06-03T05:28:47.813Z,5.70
2018-06-03T05:31:18.040Z,5.50
2018-06-03T05:33:48.179Z,6.17
2018-06-03T05:36:18.227Z,5.43
2018-06-03T05:38:49.511Z,5.90
2018-06-03T05:41:19.782Z,5.67
2018-06-03T05:43:49.767Z,6.47
2018-06-03T05:46:20.288Z,5.87
2018-06-03T05:48:52.029Z,6.20
2018-06-03T05:51:22.384Z,6.40
2018-06-03T05:53:52.765Z,6.47
2018-06-03T05:56:23.717Z,6.13
2018-06-03T05:58:54.003Z,5.97
2018-06-03T06:01:25.169Z,6.50
2018-06-03T06:03:56.088Z,6.27
2018-06-03T06:06:26.130Z,6.20
2018-06-03T06:08:57.348Z,6.80
2018-06-03T06:11:27.539Z,7.17
2018-06-03T06:14:10.339Z,7.33
2018-06-03T06:16:42.101Z,8.13
2018-06-03T06:19:12.673Z,8.07
2018-06-03T06:21:43.801Z,8.83
2018-06-03T06:24:14.109Z,8.57
2018-06-03T06:26:44.637Z,8.87
2018-06-03T06:29:14.781Z,9.93
2018-06-03T06:31:44.872Z,10.40
2018-06-03T06:34:15.488Z,10.23
2018-06-03T06:36:45.586Z,10.47
2018-06-03T06:39:16.614Z,10.10
2018-06-03T06:41:47.559Z,9.30
2018-06-03T06:44:18.405Z,9.90
2018-06-03T06:46:48.764Z,10.10
2018-06-03T06:49:19.090Z,9.73
2018-06-03T06:51:49.425Z,10.50
2018-06-03T06:54:19.519Z,10.20
2018-06-03T06:56:50.052Z,10.63
2018-06-03T06:59:20.472Z,10.47
2018-06-03T07:01:50.959Z,9.97
2018-06-03T07:04:21.568Z,10.90
2018-06-03T07:06:52.714Z,10.20
2018-06-03T07:09:22.949Z,10.93
2018-06-03T07:11:54.090Z,10.13
2018-06-03T07:14:24.257Z,10.57
2018-06-03T07:16:54.504Z,9.50
2018-06-03T07:19:25.114Z,10.13
2018-06-03T07:21:56.241Z,10.60
2018-06-03T07:24:27.373Z,10.40
2018-06-03T07:26:57.844Z,10.90
2018-06-03T07:29:28.089Z,11.23
2018-06-03T07:31:58.225Z,10.40
2018-06-03T07:34:28.450Z,11.50
2018-06-03T07:36:58.507Z,9.97
2018-06-03T07:39:29.659Z,11.57
2018-06-03T07:42:00.725Z,11.27
2018-06-03T07:44:30.888Z,10.97
2018-06-03T07:47:02.289Z,11.77
2018-06-03T07:49:32.527Z,11.10
2018-06-03T07:52:02.656Z,12.47
2018-06-03T07:54:32.810Z,14.53
2018-06-03T07:57:03.696Z,12.40
2018-06-03T07:59:33.981Z,12.20
2018-06-03T08:02:05.523Z,12.80
2018-06-03T08:04:35.835Z,12.07
2018-06-03T08:07:05.940Z,13.03
2018-06-03T08:09:36.504Z,15.53
2018-06-03T08:12:07.418Z,13.77
2018-06-03T08:14:38.004Z,11.33
2018-06-03T08:17:08.864Z,14.77
2018-06-03T08:19:39.285Z,13.20
2018-06-03T08:22:09.858Z,15.80
2018-06-03T08:24:40.869Z,16.73
2018-06-03T08:27:11.179Z,16.53
2018-06-03T08:29:42.234Z,15.47
2018-06-03T08:32:13.682Z,15.83
2018-06-03T08:34:43.827Z,14.10
2018-06-03T08:37:15.557Z,14.63
2018-06-03T08:39:46.868Z,15.97
2018-06-03T08:42:17.395Z,17.43
2018-06-03T08:44:48.606Z,17.07
2018-06-03T08:47:19.202Z,15.93
2018-06-03T08:49:50.152Z,16.40
2018-06-03T08:52:21.022Z,15.43
2018-06-03T08:54:52.840Z,15.63
2018-06-03T08:57:24.576Z,14.90
2018-06-03T08:59:56.162Z,14.17
2018-06-03T09:02:26.436Z,15.07
2018-06-03T09:04:57.800Z,14.50
2018-06-03T09:07:29.340Z,15.77
2018-06-03T09:10:01.043Z,15.40
2018-06-03T09:12:31.620Z,16.20
2018-06-03T09:15:03.166Z,15.33
2018-06-03T09:17:33.523Z,14.73
2018-06-03T09:20:04.588Z,13.47
2018-06-03T09:22:36.682Z,13.87
2018-06-03T09:25:09.079Z,12.50
2018-06-03T09:27:49.093Z,13.60
2018-06-03T09:30:21.601Z,14.57
2018-06-03T09:32:54.424Z,12.50
2018-06-03T09:35:26.384Z,13.13
2018-06-03T09:37:58.125Z,12.43
2018-06-03T09:40:30.536Z,12.33
2018-06-03T09:43:03.253Z,12.63
2018-06-03T09:45:40.873Z,12.60
2018-06-03T09:48:12.434Z,11.03
2018-06-03T09:50:52.093Z,12.10
2018-06-03T09:53:24.344Z,11.77
2018-06-03T09:55:58.970Z,10.90
2018-06-03T09:58:31.973Z,11.37
2018-06-03T10:01:04.882Z,12.57
2018-06-03T10:03:40.781Z,11.27
2018-06-03T10:06:11.711Z,12.90
2018-06-03T10:08:42.935Z,13.27
2018-06-03T10:11:16.583Z,11.53
2018-06-03T10:13:48.091Z,12.53
2018-06-03T10:16:19.511Z,11.20
2018-06-03T10:18:58.976Z,10.03
2018-06-03T10:21:34.082Z,11.20
2018-06-03T10:24:08.039Z,10.80
2018-06-03T10:26:38.988Z,10.20
2018-06-03T10:29:11.410Z,10.67
2018-06-03T10:31:44.324Z,12.20
2018-06-03T10:34:15.785Z,11.97
2018-06-03T10:36:47.710Z,10.53
2018-06-03T10:39:18.795Z,11.37
2018-06-03T10:41:51.973Z,11.03
2018-06-03T10:44:22.607Z,10.17
2018-06-03T10:46:53.245Z,9.40
2018-06-03T10:49:25.617Z,10.80
2018-06-03T10:51:58.063Z,10.87
2018-06-03T10:54:30.391Z,9.30
2018-06-03T10:57:01.219Z,11.00
2018-06-03T10:59:31.922Z,10.27
2018-06-03T11:02:04.855Z,10.17
2018-06-03T11:04:36.025Z,11.30
2018-06-03T11:07:07.542Z,10.47
2018-06-03T11:09:39.332Z,9.97
2018-06-03T11:12:10.382Z,10.53
2018-06-03T11:14:41.391Z,11.17
2018-06-03T11:17:14.775Z,10.90
2018-06-03T11:21:12.723Z,9.07
2018-06-03T11:23:43.334Z,10.57
2018-06-03T11:26:13.966Z,9.50
2018-06-03T11:28:44.583Z,8.70
2018-06-03T11:31:18.984Z,9.90
2018-06-03T11:33:51.601Z,9.40
2018-06-03T11:36:22.031Z,8.90
2018-06-03T11:39:14.160Z,8.73
2018-06-03T11:41:45.305Z,8.63
2018-06-03T11:44:16.507Z,8.63
2018-06-03T11:46:47.185Z,8.97
2018-06-03T11:49:19.831Z,8.93
2018-06-03T11:51:53.436Z,8.87
2018-06-03T11:54:24.465Z,9.30
2018-06-03T11:58:10.060Z,9.73
2018-06-03T12:00:41.598Z,7.23
2018-06-03T12:03:17.400Z,7.57
2018-06-03T12:05:50.128Z,8.00
2018-06-03T12:08:21.578Z,7.30
2018-06-03T12:10:53.493Z,8.13
2018-06-03T12:13:25.844Z,8.43
2018-06-03T12:15:58.664Z,8.93
2018-06-03T12:18:30.326Z,7.77
2018-06-03T12:21:03.659Z,8.40
2018-06-03T12:23:36.214Z,9.03
2018-06-03T12:26:10.481Z,9.17
2018-06-03T12:28:42.221Z,8.37
2018-06-03T12:31:15.452Z,8.47
2018-06-03T12:33:47.422Z,8.37
2018-06-03T12:36:19.987Z,8.93
2018-06-03T12:38:52.010Z,8.47
2018-06-03T12:41:22.763Z,7.80
2018-06-03T12:43:53.729Z,7.93
2018-06-03T12:46:24.222Z,8.90
2018-06-03T12:48:57.856Z,9.87
2018-06-03T12:51:28.641Z,10.00
2018-06-03T12:53:59.866Z,8.97
2018-06-03T12:56:31.186Z,9.37
2018-06-03T12:59:02.505Z,8.83
2018-06-03T13:01:34.929Z,8.63
2018-06-03T13:04:07.369Z,8.17
2018-06-03T13:06:42.914Z,7.47
2018-06-03T13:09:17.801Z,7.80
2018-06-03T13:11:50.617Z,8.47
2018-06-03T13:14:23.068Z,8.53
2018-06-03T13:16:54.280Z,8.13
2018-06-03T13:19:26.120Z,9.33
2018-06-03T13:21:58.392Z,8.33
2018-06-03T13:24:30.788Z,8.57
2018-06-03T13:27:01.980Z,8.30
2018-06-03T13:29:33.763Z,9.80
2018-06-03T13:32:05.988Z,11.43
2018-06-03T13:34:36.751Z,8.90
2018-06-03T13:37:09.982Z,9.53
2018-06-03T13:39:41.327Z,8.77
2018-06-03T13:42:16.432Z,9.07
2018-06-03T13:44:48.812Z,8.77
2018-06-03T13:47:20.140Z,7.73
2018-06-03T13:49:51.639Z,8.07
2018-06-03T13:52:24.245Z,8.57
2018-06-03T13:54:55.978Z,7.83
2018-06-03T13:57:29.074Z,7.67
2018-06-03T14:00:02.421Z,8.33
2018-06-03T14:02:34.387Z,8.43
2018-06-03T14:05:06.227Z,8.20
2018-06-03T14:07:40.291Z,7.53
2018-06-03T14:10:11.251Z,8.23
2018-06-03T14:12:42.640Z,8.20
2018-06-03T14:15:14.675Z,7.70
2018-06-03T14:17:46.404Z,7.20
2018-06-03T14:20:19.033Z,7.43
2018-06-03T14:22:53.755Z,8.50
2018-06-03T14:25:26.411Z,8.27
2018-06-03T14:28:00.010Z,8.03
2018-06-03T14:30:32.449Z,8.10
2018-06-03T14:33:04.697Z,7.77
2018-06-03T14:35:41.937Z,8.00
2018-06-03T14:38:16.811Z,8.27
2018-06-03T14:40:51.416Z,8.87
2018-06-03T14:43:27.375Z,9.10
2018-06-03T14:46:06.485Z,8.00
2018-06-03T14:48:39.827Z,7.80
2018-06-03T14:51:13.646Z,7.30
2018-06-03T14:53:51.152Z,8.67
2018-06-03T14:56:25.213Z,9.90
2018-06-03T14:59:05.824Z,9.83
2018-06-03T15:01:38.297Z,10.23
2018-06-03T15:04:15.856Z,9.77
2018-06-03T15:06:52.509Z,11.10
2018-06-03T15:09:26.165Z,11.63
2018-06-03T15:11:57.325Z,11.33
2018-06-03T15:14:29.988Z,12.63
2018-06-03T15:17:05.366Z,12.73
2018-06-03T15:19:38.879Z,13.17
2018-06-03T15:22:10.917Z,13.30
2018-06-03T15:24:42.896Z,14.07
2018-06-03T15:27:15.573Z,13.37
2018-06-03T15:29:50.219Z,13.60
2018-06-03T15:32:22.027Z,13.67
2018-06-03T15:34:54.103Z,14.47
2018-06-03T15:37:25.048Z,14.60
2018-06-03T15:39:57.039Z,15.93
2018-06-03T15:42:29.464Z,16.40
2018-06-03T15:45:00.527Z,14.83
2018-06-03T15:47:33.539Z,14.93
2018-06-03T15:50:06.439Z,14.93
2018-06-03T15:52:40.506Z,14.60
2018-06-03T15:55:14.594Z,17.60
2018-06-03T15:57:47.099Z,14.90
2018-06-03T16:00:19.978Z,15.03
2018-06-03T16:02:52.683Z,15.83
2018-06-03T16:05:25.428Z,17.87
2018-06-03T16:07:57.065Z,17.23
2018-06-03T16:10:28.963Z,16.73
2018-06-03T16:13:01.503Z,16.23
2018-06-03T16:15:38.823Z,14.77
2018-06-03T16:18:13.853Z,15.23
2018-06-03T16:20:58.828Z,14.37
2018-06-03T16:23:36.172Z,14.80
2018-06-03T16:26:12.083Z,14.67
2018-06-03T16:28:45.184Z,16.33
2018-06-03T16:31:19.552Z,14.90
2018-06-03T16:33:55.452Z,15.97
2018-06-03T16:36:26.677Z,15.90
2018-06-03T16:39:03.416Z,17.17
2018-06-03T16:41:46.940Z,17.00
2018-06-03T16:44:19.235Z,16.83
2018-06-03T16:46:51.215Z,17.73
2018-06-03T16:49:25.504Z,17.70
2018-06-03T16:52:04.140Z,17.27
2018-06-03T16:54:34.860Z,17.90
2018-06-03T16:57:13.065Z,18.03
2018-06-03T16:59:46.649Z,17.20
2018-06-03T17:02:20.289Z,18.77
2018-06-03T17:04:51.962Z,17.67
2018-06-03T17:07:29.050Z,17.90
2018-06-03T17:10:01.793Z,18.40
2018-06-03T17:12:32.483Z,18.37
2018-06-03T17:15:04.233Z,17.70
2018-06-03T17:17:37.020Z,17.13
2018-06-03T17:20:08.237Z,19.60
2018-06-03T17:22:39.438Z,18.40
2018-06-03T17:25:12.453Z,18.67
2018-06-03T17:27:44.172Z,18.27
2018-06-03T17:30:16.038Z,19.27
2018-06-03T17:32:48.596Z,18.87
2018-06-03T17:35:20.946Z,19.00
2018-06-03T17:37:52.624Z,19.20
2018-06-03T17:40:23.781Z,18.80
2018-06-03T17:42:54.079Z,19.33
2018-06-03T17:46:44.276Z,18.27
2018-06-03T17:49:18.527Z,18.90
2018-06-03T17:51:50.181Z,18.20
2018-06-03T17:54:21.387Z,19.30
2018-06-03T17:57:02.079Z,18.33
2018-06-03T17:59:35.925Z,18.70
2018-06-03T18:02:08.936Z,18.27
2018-06-03T18:04:43.409Z,18.87
2018-06-03T18:07:15.582Z,19.87
2018-06-03T18:09:46.751Z,19.33
2018-06-03T18:12:19.259Z,19.33
2018-06-03T18:14:50.260Z,19.20
2018-06-03T18:17:22.252Z,18.97
2018-06-03T18:19:53.004Z,20.00
2018-06-03T18:22:32.359Z,19.43
2018-06-03T18:25:06.453Z,18.87
2018-06-03T18:27:37.148Z,19.60
2018-06-03T18:30:07.989Z,19.10
2018-06-03T18:32:41.522Z,19.20
2018-06-03T18:35:12.005Z,19.43
2018-06-03T18:37:42.597Z,19.23
2018-06-03T18:40:15.841Z,18.43
2018-06-03T18:42:46.986Z,18.90
2018-06-03T18:45:19.484Z,19.90
2018-06-03T18:47:51.121Z,19.47
2018-06-03T18:50:21.724Z,19.97
2018-06-03T18:52:52.998Z,19.33
2018-06-03T18:55:27.079Z,20.83
2018-06-03T18:58:00.593Z,21.57
2018-06-03T19:00:34.089Z,21.43
2018-06-03T19:03:09.721Z,20.90
2018-06-03T19:05:42.877Z,20.93
2018-06-03T19:08:18.034Z,22.30
2018-06-03T19:10:49.644Z,22.83
2018-06-03T19:13:22.018Z,21.13
2018-06-03T19:15:57.344Z,23.33
2018-06-03T19:18:34.608Z,22.87
2018-06-03T19:21:07.015Z,22.57
2018-06-03T19:23:37.780Z,22.07
2018-06-03T19:26:10.988Z,21.40
2018-06-03T19:28:42.973Z,21.47
2018-06-03T19:31:13.924Z,20.53
2018-06-03T19:33:44.470Z,21.27
2018-06-03T19:36:15.202Z,20.87
2018-06-03T19:38:45.906Z,21.63
2018-06-03T19:41:16.245Z,22.77
2018-06-03T19:43:46.747Z,20.83
2018-06-03T19:46:17.989Z,20.17
2018-06-03T19:48:49.348Z,20.97
2018-06-03T19:51:21.959Z,21.30
2018-06-03T19:53:52.894Z,20.50
2018-06-03T19:56:24.421Z,20.73
2018-06-03T19:58:56.636Z,20.97
2018-06-03T20:01:28.429Z,20.70
2018-06-03T20:03:59.297Z,21.67
2018-06-03T20:06:32.286Z,22.53
2018-06-03T20:11:54.570Z,21.57
2018-06-03T20:14:25.956Z,20.63
2018-06-03T20:16:56.911Z,21.00
2018-06-03T20:19:27.963Z,21.43
2018-06-03T20:22:00.214Z,22.20
2018-06-03T20:24:31.646Z,21.37
2018-06-03T20:27:03.139Z,21.20
2018-06-03T20:29:39.689Z,21.23
2018-06-03T20:32:13.211Z,20.53
2018-06-03T20:34:47.110Z,20.40
2018-06-03T20:37:18.066Z,19.80
2018-06-03T20:39:48.964Z,21.70
2018-06-03T20:42:20.309Z,21.47
2018-06-03T20:44:51.018Z,20.63
2018-06-03T20:47:23.311Z,21.07
2018-06-03T20:49:53.504Z,21.40
2018-06-03T20:52:24.778Z,21.43
2018-06-03T20:54:56.064Z,20.53
2018-06-03T20:57:27.311Z,20.93
2018-06-03T20:59:58.266Z,20.57
2018-06-03T21:02:28.791Z,21.10
2018-06-03T21:05:01.815Z,20.73
2018-06-03T21:07:35.671Z,21.13
2018-06-03T21:10:09.206Z,20.20
2018-06-03T21:12:40.665Z,20.80
2018-06-03T21:15:12.024Z,21.80
2018-06-03T21:17:42.871Z,20.23
2018-06-03T21:20:13.553Z,20.00
2018-06-03T21:22:44.145Z,20.77
2018-06-03T21:25:16.303Z,22.43
2018-06-03T21:27:48.220Z,20.90
2018-06-03T21:30:21.662Z,21.83
2018-06-03T21:32:52.384Z,20.53
2018-06-03T21:35:23.467Z,19.53
2018-06-03T21:37:55.965Z,22.00
2018-06-03T21:40:29.238Z,21.03
2018-06-03T21:43:08.284Z,20.37
2018-06-03T21:45:42.660Z,21.00
2018-06-03T21:48:16.617Z,20.73
2018-06-03T21:50:48.243Z,20.97
2018-06-03T21:53:20.175Z,20.70
2018-06-03T21:55:51.069Z,20.73
2018-06-03T21:58:25.596Z,19.90
2018-06-03T22:01:00.415Z,20.00
2018-06-03T22:03:32.358Z,20.43
2018-06-03T22:06:05.227Z,20.63
2018-06-03T22:08:36.096Z,19.83
2018-06-03T22:11:08.554Z,20.57
2018-06-03T22:13:39.083Z,20.77
2018-06-03T22:16:10.454Z,21.30
2018-06-03T22:18:43.167Z,19.87
2018-06-03T22:21:14.153Z,20.47
2018-06-03T22:23:46.106Z,19.67
2018-06-03T22:26:17.111Z,19.70
2018-06-03T22:28:48.622Z,19.53
2018-06-03T22:31:18.968Z,20.00
2018-06-03T22:33:50.447Z,21.00
2018-06-03T22:36:20.897Z,20.37
2018-06-03T22:38:52.477Z,19.70
2018-06-03T22:41:26.273Z,20.63
2018-06-03T22:43:58.154Z,19.97
2018-06-03T22:46:29.985Z,20.37
2018-06-03T22:49:01.544Z,20.23
2018-06-03T22:51:35.085Z,21.73
2018-06-03T22:54:05.910Z,19.53
2018-06-03T22:56:47.926Z,20.93
2018-06-03T22:59:18.663Z,22.13
2018-06-03T23:01:52.117Z,20.97
2018-06-03T23:04:22.712Z,21.40
2018-06-03T23:06:56.131Z,21.43
2018-06-03T23:09:27.021Z,20.30
2018-06-03T23:11:57.976Z,20.80
2018-06-03T23:14:29.352Z,20.50
2018-06-03T23:17:01.077Z,21.17
2018-06-03T23:19:31.527Z,21.63
2018-06-03T23:22:05.359Z,21.13
2018-06-03T23:24:37.586Z,21.10
2018-06-03T23:27:09.472Z,21.90
2018-06-03T23:29:41.236Z,20.57
2018-06-03T23:32:14.003Z,20.40
2018-06-03T23:34:45.594Z,19.80
2018-06-03T23:37:16.125Z,20.53
2018-06-03T23:39:47.553Z,19.67
2018-06-03T23:42:21.976Z,21.23
2018-06-03T23:44:52.171Z,20.50
2018-06-03T23:47:22.751Z,20.13
2018-06-03T23:49:52.927Z,20.97
2018-06-03T23:52:22.977Z,20.07
2018-06-03T23:54:53.009Z,21.10
2018-06-03T23:57:23.281Z,20.33
2018-06-03T23:59:53.441Z,21.17
